Venice-Lido Airport

LIPV · Veneto, Italy

METAR history LIPV · Venice-Lido Airport

Below you see METARs of the last few days. Select a year to browse through older METARs, from the year 2007 onwards.

July 24, 2024

Time Code Weather Temp. Visibility Ceiling Wind METAR/SPECI
06:50
V
24 °C 10 km+ - 020° 020° 7 kt METAR LIPZ 240450Z 02007KT CAVOK 24/18 Q1013 NOSIG
06:20
V
24 °C 10 km+ - 010° 010° 6 kt METAR LIPZ 240420Z 01006KT 9999 FEW050 24/18 Q1013 NOSIG
05:50
V
23 °C 10 km+ - 350° 350° 5 kt METAR LIPZ 240350Z 35005KT CAVOK 23/19 Q1013 NOSIG
05:20
V
23 °C 10 km+ - 350° 350° 8 kt METAR LIPZ 240320Z 35008KT CAVOK 23/19 Q1013 NOSIG
04:50
V
23 °C 10 km+ - 360° 360° 5 kt METAR LIPZ 240250Z 36005KT 330V030 CAVOK 23/19 Q1013 NOSIG
04:20
V
23 °C 10 km+ - 350° 350° 4 kt METAR LIPZ 240220Z 35004KT 320V030 CAVOK 23/19 Q1013 NOSIG
03:50
V
23 °C 10 km+ - 020° 020° 6 kt METAR LIPZ 240150Z 02006KT CAVOK 23/19 Q1013 NOSIG
03:20
V
23 °C 10 km+ - 020° 020° 5 kt METAR LIPZ 240120Z 02005KT CAVOK 23/19 Q1013 NOSIG
02:50
V
23 °C 10 km+ - 030° 030° 7 kt METAR LIPZ 240050Z 03007KT CAVOK 23/20 Q1013 NOSIG
02:20
V
23 °C 10 km+ - 030° 030° 6 kt METAR LIPZ 240020Z 03006KT CAVOK 23/20 Q1013 NOSIG
01:50
V
24 °C 10 km+ - 010° 010° 5 kt METAR LIPZ 232350Z 01005KT CAVOK 24/20 Q1014 NOSIG
01:20
V
25 °C 10 km+ - 360° 360° 5 kt METAR LIPZ 232320Z 36005KT CAVOK 25/20 Q1014 NOSIG
00:50
V
25 °C 10 km+ - 010° 010° 6 kt METAR LIPZ 232250Z 01006KT CAVOK 25/20 Q1014 NOSIG
00:20
V
26 °C 10 km+ - 350° 350° 5 kt METAR LIPZ 232220Z 35005KT CAVOK 26/20 Q1014 NOSIG

July 23, 2024

Time Code Weather Temp. Visibility Ceiling Wind METAR/SPECI
23:50
V
25 °C 10 km+ - 330° 330° 4 kt METAR LIPZ 232150Z 33004KT 270V020 CAVOK 25/20 Q1014 NOSIG
23:20
V
27 °C 10 km+ - 040° 040° 2 kt METAR LIPZ 232120Z 04002KT CAVOK 27/20 Q1014 NOSIG
22:50
V
26 °C 10 km+ - 090° 090° 2 kt METAR LIPZ 232050Z 09002KT CAVOK 26/21 Q1014 NOSIG
22:20
V
26 °C 10 km+ - 060° 060° 2 kt METAR LIPZ 232020Z 06002KT CAVOK 26/20 Q1014 NOSIG
21:50
V
27 °C 10 km+ - 050° 050° 3 kt METAR LIPZ 231950Z 05003KT CAVOK 27/20 Q1014 NOSIG
21:20
V
26 °C 10 km+ - 070° 070° 4 kt METAR LIPZ 231920Z 07004KT CAVOK 26/20 Q1014 NOSIG
20:50
V
27 °C 10 km+ - 060° 060° 4 kt METAR LIPZ 231850Z 06004KT CAVOK 27/19 Q1013 NOSIG
20:20
V
28 °C 10 km+ - 030° 030° 4 kt METAR LIPZ 231820Z 03004KT CAVOK 28/18 Q1013 NOSIG
19:50
V
29 °C 10 km+ - 020° 020° 5 kt METAR LIPZ 231750Z 02005KT CAVOK 29/17 Q1013 NOSIG
19:20
V
30 °C 10 km+ - 010° 010° 7 kt METAR LIPZ 231720Z 01007KT 340V040 CAVOK 30/19 Q1013 NOSIG
18:50
V
30 °C 10 km+ - 030° 030° 5 kt METAR LIPZ 231650Z 03005KT CAVOK 30/19 Q1013 NOSIG
18:20
V
30 °C 10 km+ - 030° 030° 6 kt METAR LIPZ 231620Z 03006KT 350V050 CAVOK 30/19 Q1013 NOSIG
17:50
V
31 °C 10 km+ - Var Var 3 kt METAR LIPZ 231550Z VRB03KT 9999 FEW070 31/19 Q1014 NOSIG
17:20
V
31 °C 10 km+ - Var Var 3 kt METAR LIPZ 231520Z VRB03KT 9999 FEW070 31/18 Q1014 NOSIG
16:50
V
30 °C 10 km+ - 200° 200° 4 kt METAR LIPZ 231450Z 20004KT 9999 FEW070 30/19 Q1014 NOSIG
16:20
V
31 °C 10 km+ - 220° 220° 5 kt METAR LIPZ 231420Z 22005KT 9999 FEW070 31/16 Q1014 NOSIG
15:50
V
30 °C 10 km+ - 220° 220° 6 kt METAR LIPZ 231350Z 22006KT 9999 FEW070 30/18 Q1015 NOSIG
15:20
V
30 °C 10 km+ - 220° 220° 6 kt METAR LIPZ 231320Z 22006KT 9999 FEW070 30/18 Q1014 NOSIG
14:50
V
30 °C 10 km+ - 170° 170° 4 kt METAR LIPZ 231250Z 17004KT 150V210 9999 FEW070 30/18 Q1015 NOSIG
14:20
V
29 °C 10 km+ - Var Var 2 kt METAR LIPZ 231220Z VRB02KT 9999 FEW070 29/20 Q1015 NOSIG
13:50
V
29 °C 10 km+ - 140° 140° 4 kt METAR LIPZ 231150Z 14004KT 090V170 9999 FEW070 29/20 Q1015 NOSIG
13:20
V
29 °C 10 km+ - 110° 110° 4 kt METAR LIPZ 231120Z 11004KT 060V170 9999 FEW070 29/20 Q1015 NOSIG
12:50
V
30 °C 10 km+ - 090° 090° 4 kt METAR LIPZ 231050Z 09004KT 020V170 9999 FEW070 30/20 Q1015 NOSIG
12:20
V
29 °C 10 km+ - 080° 080° 6 kt METAR LIPZ 231020Z 08006KT 050V110 9999 FEW070 29/19 Q1015 NOSIG
11:50
V
29 °C 10 km+ - 080° 080° 7 kt METAR LIPZ 230950Z 08007KT 9999 FEW070 29/19 Q1015 NOSIG
11:20
V
29 °C 10 km+ - 060° 060° 6 kt METAR LIPZ 230920Z 06006KT 9999 FEW070 29/19 Q1015 NOSIG
10:50
V
28 °C 10 km+ - 070° 070° 5 kt METAR LIPZ 230850Z 07005KT 040V100 9999 FEW070 28/20 Q1015 NOSIG
10:20
V
28 °C 10 km+ - 020° 020° 5 kt METAR LIPZ 230820Z 02005KT 340V060 9999 SCT070 28/20 Q1015 NOSIG
09:50
V
27 °C 10 km+ - 360° 360° 5 kt METAR LIPZ 230750Z 36005KT 330V030 9999 SCT070 27/20 Q1015 NOSIG
09:20
V
27 °C 10 km+ - 030° 030° 6 kt METAR LIPZ 230720Z 03006KT 360V060 9999 SCT070 27/20 Q1015 NOSIG
08:50
V
26 °C 10 km+ - 030° 030° 6 kt METAR LIPZ 230650Z 03006KT 9999 SCT070 26/20 Q1015 NOSIG
08:20
V
26 °C 10 km+ - 020° 020° 7 kt METAR LIPZ 230620Z 02007KT 9999 SCT070 26/20 Q1015 NOSIG
07:50
V
25 °C 10 km+ - 010° 010° 7 kt METAR LIPZ 230550Z 01007KT 9999 SCT070 25/20 Q1015 NOSIG
07:20
V
25 °C 10 km+ - 010° 010° 7 kt METAR LIPZ 230520Z 01007KT CAVOK 25/20 Q1015 NOSIG
06:50
V
23 °C 10 km+ - 350° 350° 5 kt METAR LIPZ 230450Z 35005KT 320V020 CAVOK 23/20 Q1015 NOSIG
06:20
V
23 °C 10 km+ - 340° 340° 6 kt METAR LIPZ 230420Z 34006KT 320V040 CAVOK 23/20 Q1015 NOSIG
05:50
V
22 °C 10 km+ - 330° 330° 6 kt METAR LIPZ 230350Z 33006KT CAVOK 22/20 Q1014 NOSIG
05:20
V
22 °C 10 km+ - 330° 330° 4 kt METAR LIPZ 230320Z 33004KT CAVOK 22/20 Q1014 NOSIG
04:50
V
21 °C 10 km+ - 340° 340° 3 kt METAR LIPZ 230250Z 34003KT CAVOK 21/20 Q1014 NOSIG
04:20
V
23 °C 10 km+ - 030° 030° 4 kt METAR LIPZ 230220Z 03004KT 350V060 CAVOK 23/20 Q1014 NOSIG
03:50
V
22 °C 10 km+ - 080° 080° 6 kt METAR LIPZ 230150Z 08006KT CAVOK 22/20 Q1014 NOSIG
03:20
V
22 °C 10 km+ - 350° 350° 2 kt METAR LIPZ 230120Z 35002KT CAVOK 22/20 Q1014 NOSIG
02:50
V
22 °C 10 km+ - 310° 310° 3 kt METAR LIPZ 230050Z 31003KT CAVOK 22/20 Q1014 NOSIG
02:20
V
23 °C 10 km+ - 340° 340° 4 kt METAR LIPZ 230020Z 34004KT CAVOK 23/19 Q1014 NOSIG
01:50
V
23 °C 10 km+ - 010° 010° 3 kt METAR LIPZ 222350Z 01003KT 320V050 CAVOK 23/19 Q1014 NOSIG
01:20
V
23 °C 10 km+ - 360° 360° 3 kt METAR LIPZ 222320Z 36003KT 340V040 CAVOK 23/19 Q1014 NOSIG
00:50
V
22 °C 10 km+ - 300° 300° 4 kt METAR LIPZ 222250Z 30004KT CAVOK 22/20 Q1014 NOSIG
00:20
V
23 °C 10 km+ - Var Var 2 kt METAR LIPZ 222220Z VRB02KT CAVOK 23/20 Q1014 NOSIG

July 22, 2024

Time Code Weather Temp. Visibility Ceiling Wind METAR/SPECI
23:50
V
23 °C 10 km+ - 070° 070° 6 kt METAR LIPZ 222150Z 07006KT CAVOK 23/20 Q1014 NOSIG
23:20
V
23 °C 10 km+ - 070° 070° 5 kt METAR LIPZ 222120Z 07005KT CAVOK 23/20 Q1014 NOSIG
22:50
V
24 °C 10 km+ - 010° 010° 7 kt METAR LIPZ 222050Z 01007KT 330V030 CAVOK 24/19 Q1014 NOSIG
22:20
V
24 °C 10 km+ - 010° 010° 8 kt METAR LIPZ 222020Z 01008KT 9999 FEW060 24/20 Q1014 NOSIG
21:50
V
24 °C 10 km+ - 360° 360° 11 kt METAR LIPZ 221950Z 36011KT 9999 FEW060 24/21 Q1014 NOSIG
21:20
V
24 °C 10 km+ - 020° 020° 12 kt METAR LIPZ 221920Z 02012KT 9999 SCT060 24/19 Q1013 NOSIG
20:50
V
25 °C 10 km+ - 060° 060° 8 kt METAR LIPZ 221850Z 06008KT 9999 SCT060 25/22 Q1013 NOSIG
20:20
V
26 °C 10 km+ - 060° 060° 9 kt METAR LIPZ 221820Z 06009KT 030V090 9999 FEW050 SCT070 26/22 Q1013 NOSIG
19:50
V
25 °C 10 km+ 7,000 ft 070° 070° 10 kt METAR LIPZ 221750Z 07010KT 9999 -RA FEW050 BKN070 25/21 Q1013 NOSIG
19:20
V
27 °C 10 km+ 7,000 ft 010° 010° 10 kt METAR LIPZ 221720Z 01010KT 9999 -RA BKN070 27/21 Q1012 NOSIG
18:50
V
27 °C 10 km+ 7,000 ft 310° 310° 6 kt METAR LIPZ 221650Z 31006KT 9999 VCSH FEW040CB BKN070 27/20 Q1012 BECMG 4000 TSRA
18:20
V
28 °C 10 km+ 7,000 ft 280° 280° 8 kt METAR LIPZ 221620Z 28008KT 9999 FEW040CB BKN070 28/19 Q1011 BECMG 4000 TSRA
17:50
V
28 °C 10 km+ - 270° 270° 10 kt METAR LIPZ 221550Z 27010KT 9999 VCSH FEW040CB SCT050 28/19 Q1012 BECMG 4000 TSRA
17:20
V
29 °C 10 km+ - 230° 230° 10 kt METAR LIPZ 221520Z 23010KT 9999 FEW045 29/21 Q1011 NOSIG
16:50
V
30 °C 10 km+ - 210° 210° 11 kt METAR LIPZ 221450Z 21011KT 9999 FEW050 30/22 Q1011 NOSIG
16:20
V
30 °C 10 km+ - 190° 190° 8 kt METAR LIPZ 221420Z 19008KT 9999 FEW045 30/23 Q1011 NOSIG
15:50
V
30 °C 10 km+ - 190° 190° 8 kt METAR LIPZ 221350Z 19008KT CAVOK 30/23 Q1011 NOSIG
15:20
V
30 °C 10 km+ - 160° 160° 8 kt METAR LIPZ 221320Z 16008KT 9999 FEW045 30/24 Q1011 NOSIG
14:50
V
30 °C 10 km+ - 160° 160° 8 kt METAR LIPZ 221250Z 16008KT 9999 FEW050 30/24 Q1011 NOSIG
14:20
V
30 °C 10 km+ - 150° 150° 9 kt METAR LIPZ 221220Z 15009KT 9999 FEW050 30/24 Q1011 NOSIG
13:50
V
31 °C 10 km+ - 140° 140° 8 kt METAR LIPZ 221150Z 14008KT 9999 FEW050 31/23 Q1011 NOSIG
13:20
V
32 °C 10 km+ - 030° 030° 5 kt METAR LIPZ 221120Z 03005KT 310V090 CAVOK 32/21 Q1011 NOSIG
12:50
V
32 °C 10 km+ - 050° 050° 6 kt METAR LIPZ 221050Z 05006KT 350V100 CAVOK 32/22 Q1010 NOSIG
12:20
V
30 °C 10 km+ - 020° 020° 7 kt METAR LIPZ 221020Z 02007KT 320V080 CAVOK 30/20 Q1010 NOSIG
11:50
V
30 °C 10 km+ - 020° 020° 8 kt METAR LIPZ 220950Z 02008KT 320V060 9999 FEW045 30/22 Q1010 NOSIG
11:20
V
29 °C 10 km+ - Var Var 5 kt METAR LIPZ 220920Z VRB05KT 9999 FEW045 29/23 Q1011 NOSIG
10:50
V
28 °C 10 km+ - 360° 360° 6 kt METAR LIPZ 220850Z 36006KT 320V020 CAVOK 28/22 Q1011 NOSIG
10:20
V
27 °C 10 km+ - 010° 010° 5 kt METAR LIPZ 220820Z 01005KT 330V060 9999 FEW045 27/22 Q1011 NOSIG
09:50
V
26 °C 10 km+ - Var Var 1 kt METAR LIPZ 220750Z VRB01KT 9999 FEW045 26/22 Q1012 NOSIG
09:20
V
26 °C 10 km+ - Var Var 1 kt METAR LIPZ 220720Z VRB01KT CAVOK 26/21 Q1012 NOSIG
08:50
V
25 °C 10 km+ - 010° 010° 7 kt METAR LIPZ 220650Z 01007KT CAVOK 25/21 Q1011 NOSIG
08:20
V
24 °C 10 km+ - 360° 360° 4 kt METAR LIPZ 220620Z 36004KT 330V030 9999 FEW045 24/21 Q1011 NOSIG
07:50
V
24 °C 10 km+ - 020° 020° 4 kt METAR LIPZ 220550Z 02004KT 9999 FEW045 24/21 Q1011 NOSIG
07:20
V
24 °C 10 km+ - 020° 020° 6 kt METAR LIPZ 220520Z 02006KT CAVOK 24/21 Q1010 NOSIG
06:50
V
24 °C 10 km+ - 010° 010° 5 kt METAR LIPZ 220450Z AUTO 01005KT 9999 // SCT130/// 24/21 Q1010
06:20
V
24 °C 10 km+ - 020° 020° 6 kt METAR LIPZ 220420Z AUTO 02006KT 9999 // NCD 24/21 Q1009
05:50
V
24 °C 10 km+ - 030° 030° 4 kt METAR LIPZ 220350Z AUTO 03004KT 9999 // NCD 24/22 Q1009
05:20
V
24 °C 10 km+ - 030° 030° 5 kt METAR LIPZ 220320Z AUTO 03005KT 9999 // NCD 24/22 Q1009
04:50
V
25 °C 10 km+ - 060° 060° 5 kt METAR LIPZ 220250Z AUTO 06005KT 9999 // NCD 25/22 Q1009
04:20
V
24 °C 10 km+ - 050° 050° 6 kt METAR LIPZ 220220Z AUTO 05006KT 9999 // NCD 24/22 Q1009
03:50
V
25 °C 10 km+ - 050° 050° 5 kt METAR LIPZ 220150Z AUTO 05005KT 9999 // NCD 25/22 Q1009
03:20
V
25 °C 10 km+ - 030° 030° 5 kt METAR LIPZ 220120Z AUTO 03005KT 9999 // NCD 25/21 Q1009
02:50
V
26 °C 10 km+ - 010° 010° 5 kt METAR LIPZ 220050Z AUTO 01005KT 9999 // NCD 26/21 Q1009
02:20
V
26 °C 10 km+ 21,000 ft 350° 350° 3 kt METAR LIPZ 220020Z AUTO 35003KT 9999 // BKN210/// 26/22 Q1010
01:50
V
26 °C 10 km+ - 350° 350° 4 kt METAR LIPZ 212350Z AUTO 35004KT 320V030 9999 // SCT210/// 26/22 Q1010
01:20
V
26 °C 10 km+ - 330° 330° 4 kt METAR LIPZ 212320Z AUTO 33004KT 320V040 9999 // NCD 26/22 Q1010
00:50
V
26 °C 10 km+ - 340° 340° 4 kt METAR LIPZ 212250Z AUTO 34004KT 300V040 9999 // NCD 26/23 Q1010
00:20
V
27 °C 10 km+ - 210° 210° 5 kt METAR LIPZ 212220Z AUTO 21005KT 9999 // NCD 27/22 Q1009

July 21, 2024

Time Code Weather Temp. Visibility Ceiling Wind METAR/SPECI
23:50
V
27 °C 10 km+ - 200° 200° 4 kt METAR LIPZ 212150Z AUTO 20004KT 9999 // NCD 27/23 Q1009
23:20
V
27 °C 10 km+ - 210° 210° 7 kt METAR LIPZ 212120Z AUTO 21007KT 9999 // NCD 27/22 Q1009
22:50
V
27 °C 10 km+ - 180° 180° 5 kt METAR LIPZ 212050Z 18005KT CAVOK 27/23 Q1009 NOSIG
22:20
V
27 °C 10 km+ - 170° 170° 4 kt METAR LIPZ 212020Z 17004KT CAVOK 27/22 Q1009 NOSIG
21:50
V
27 °C 10 km+ - 160° 160° 4 kt METAR LIPZ 211950Z 16004KT 9999 FEW070 27/22 Q1009 NOSIG
21:20
V
28 °C 10 km+ - 160° 160° 5 kt METAR LIPZ 211920Z 16005KT 9999 SCT070 28/21 Q1008 NOSIG
20:50
V
28 °C 10 km+ - 140° 140° 6 kt METAR LIPZ 211850Z 14006KT 9999 FEW070 28/22 Q1008 NOSIG
20:20
V
28 °C 10 km+ - 170° 170° 6 kt METAR LIPZ 211820Z 17006KT 9999 FEW070 28/21 Q1008 NOSIG
19:50
V
28 °C 10 km+ - 160° 160° 6 kt METAR LIPZ 211750Z 16006KT 9999 FEW070 28/21 Q1008 NOSIG
19:20
V
28 °C 10 km+ - 160° 160° 6 kt METAR LIPZ 211720Z 16006KT 130V190 CAVOK 28/22 Q1008 NOSIG
18:50
V
28 °C 10 km+ - 150° 150° 7 kt METAR LIPZ 211650Z 15007KT 120V180 CAVOK 28/21 Q1008 NOSIG
18:20
V
29 °C 10 km+ - 160° 160° 5 kt METAR LIPZ 211620Z 16005KT CAVOK 29/20 Q1008 NOSIG
17:50
V
29 °C 10 km+ - 140° 140° 6 kt METAR LIPZ 211550Z 14006KT 120V180 CAVOK 29/21 Q1008 NOSIG
17:20
V
28 °C 10 km+ - 150° 150° 9 kt METAR LIPZ 211520Z 15009KT CAVOK 28/21 Q1008 NOSIG
16:50
V
29 °C 10 km+ - 150° 150° 7 kt METAR LIPZ 211450Z 15007KT CAVOK 29/21 Q1008 NOSIG
16:20
V
29 °C 10 km+ - 160° 160° 6 kt METAR LIPZ 211420Z 16006KT 130V190 CAVOK 29/21 Q1008 NOSIG
Report a change